createdAt,value
2018-11-28T00:00:27.067Z,34.83
2018-11-28T00:01:00.491Z,35.03
2018-11-28T00:01:33.891Z,37.73
2018-11-28T00:02:07.313Z,31.35
2018-11-28T00:02:40.751Z,34.55
2018-11-28T00:03:14.182Z,33.83
2018-11-28T00:03:47.605Z,35.15
2018-11-28T00:04:21.032Z,35.98
2018-11-28T00:04:54.463Z,33.28
2018-11-28T00:06:27.802Z,35.23
2018-11-28T00:07:01.201Z,36.28
2018-11-28T00:07:34.590Z,38.42
2018-11-28T00:08:08.010Z,35.25
2018-11-28T00:08:41.423Z,33.45
2018-11-28T00:09:14.867Z,35.63
2018-11-28T00:09:48.338Z,35.65
2018-11-28T00:10:21.909Z,35.92
2018-11-28T00:10:55.308Z,34.25
2018-11-28T00:11:28.750Z,34.70
2018-11-28T00:12:02.181Z,33.20
2018-11-28T00:12:35.653Z,38.45
2018-11-28T00:13:09.042Z,36.00
2018-11-28T00:13:42.440Z,39.20
2018-11-28T00:14:15.841Z,35.55
2018-11-28T00:14:49.237Z,34.13
2018-11-28T00:15:22.674Z,35.05
2018-11-28T00:15:56.085Z,36.42
2018-11-28T00:16:29.504Z,29.67
2018-11-28T00:17:02.948Z,37.75
2018-11-28T00:17:36.455Z,33.95
2018-11-28T00:18:09.842Z,35.50
2018-11-28T00:18:43.230Z,38.02
2018-11-28T00:19:16.627Z,35.25
2018-11-28T00:19:50.020Z,37.93
2018-11-28T00:20:23.552Z,37.00
2018-11-28T00:20:56.970Z,37.15
2018-11-28T00:21:30.387Z,34.48
2018-11-28T00:22:03.912Z,33.15
2018-11-28T00:22:37.299Z,34.92
2018-11-28T00:23:10.735Z,34.13
2018-11-28T00:23:44.183Z,38.88
2018-11-28T00:24:17.599Z,37.17
2018-11-28T00:24:50.996Z,36.17
2018-11-28T00:25:24.402Z,38.90
2018-11-28T00:25:58.937Z,35.95
2018-11-28T00:26:31.379Z,35.50
2018-11-28T00:27:04.953Z,35.52
2018-11-28T00:27:38.388Z,33.00
2018-11-28T00:28:11.778Z,36.05
2018-11-28T00:28:45.164Z,33.05
2018-11-28T00:29:18.565Z,34.00
2018-11-28T00:29:51.971Z,33.83
2018-11-28T00:30:25.815Z,39.55
2018-11-28T00:30:59.241Z,36.10
2018-11-28T00:31:32.653Z,37.05
2018-11-28T00:32:06.697Z,35.88
2018-11-28T00:32:40.168Z,39.27
2018-11-28T00:33:13.531Z,32.88
2018-11-28T00:33:46.912Z,31.17
2018-11-28T00:34:20.264Z,33.20
2018-11-28T00:34:53.642Z,35.13
2018-11-28T00:35:27.030Z,36.25
2018-11-28T00:36:00.422Z,36.90
2018-11-28T00:36:33.798Z,33.42
2018-11-28T00:37:07.170Z,35.23
2018-11-28T00:37:40.578Z,35.95
2018-11-28T00:38:13.990Z,38.08
2018-11-28T00:38:47.423Z,35.15
2018-11-28T00:39:20.857Z,36.03
2018-11-28T00:39:54.263Z,37.33
2018-11-28T00:40:27.662Z,37.83
2018-11-28T00:41:01.053Z,34.18
2018-11-28T00:41:34.566Z,36.13
2018-11-28T00:42:07.969Z,34.78
2018-11-28T00:42:41.506Z,32.95
2018-11-28T00:43:14.899Z,39.03
2018-11-28T00:43:48.277Z,37.85
2018-11-28T00:44:21.689Z,36.65
2018-11-28T00:44:55.111Z,38.42
2018-11-28T00:45:28.585Z,36.88
2018-11-28T00:46:01.989Z,34.43
2018-11-28T00:46:35.463Z,35.23
2018-11-28T00:47:08.871Z,35.25
2018-11-28T00:47:42.297Z,33.00
2018-11-28T00:48:15.734Z,36.75
2018-11-28T00:48:49.129Z,37.75
2018-11-28T00:49:22.565Z,35.10
2018-11-28T00:49:55.992Z,38.58
2018-11-28T00:50:29.365Z,37.05
2018-11-28T00:51:02.838Z,36.42
2018-11-28T00:51:36.248Z,39.42
2018-11-28T00:52:09.672Z,38.23
2018-11-28T00:52:43.077Z,35.52
2018-11-28T00:53:16.564Z,37.88
2018-11-28T00:53:49.986Z,37.73
2018-11-28T00:54:23.388Z,34.25
2018-11-28T00:54:56.824Z,34.23
2018-11-28T00:55:30.234Z,35.73
2018-11-28T00:56:03.704Z,36.58
2018-11-28T00:56:37.119Z,37.23
2018-11-28T00:57:10.506Z,38.48
2018-11-28T00:57:44.204Z,38.92
2018-11-28T00:58:17.613Z,39.65
2018-11-28T00:58:51.030Z,37.78
2018-11-28T00:59:24.520Z,37.85
2018-11-28T00:59:57.879Z,39.67
2018-11-28T01:00:31.278Z,38.15
2018-11-28T01:01:05.071Z,36.88
2018-11-28T01:01:38.476Z,36.85
2018-11-28T01:02:11.870Z,36.05
2018-11-28T01:02:45.709Z,37.00
2018-11-28T01:03:19.098Z,38.33
2018-11-28T01:03:52.500Z,35.13
2018-11-28T01:04:25.908Z,36.50
2018-11-28T01:04:59.310Z,36.60
2018-11-28T01:05:32.749Z,36.95
2018-11-28T01:06:06.469Z,39.25
2018-11-28T01:06:39.851Z,36.15
2018-11-28T01:07:13.318Z,37.55
2018-11-28T01:07:49.245Z,37.13
2018-11-28T01:08:22.666Z,39.25
2018-11-28T01:08:56.078Z,35.65
2018-11-28T01:09:29.795Z,39.30
2018-11-28T01:10:05.445Z,36.93
2018-11-28T01:10:38.841Z,38.20
2018-11-28T01:11:12.241Z,37.95
2018-11-28T01:11:45.637Z,38.50
2018-11-28T01:12:19.050Z,41.02
2018-11-28T01:12:53.433Z,40.90
2018-11-28T01:13:26.850Z,37.53
2018-11-28T01:14:00.351Z,37.20
2018-11-28T01:14:33.746Z,36.58
2018-11-28T01:15:10.038Z,38.92
2018-11-28T01:15:43.450Z,38.83
2018-11-28T01:16:16.948Z,38.33
2018-11-28T01:16:50.370Z,37.73
2018-11-28T01:17:23.764Z,37.08
2018-11-28T01:17:57.274Z,39.58
2018-11-28T01:18:30.707Z,39.73
2018-11-28T01:19:04.659Z,39.88
2018-11-28T01:19:38.111Z,38.83
2018-11-28T01:20:13.044Z,39.78
2018-11-28T01:20:46.398Z,33.75
2018-11-28T01:21:19.820Z,36.30
2018-11-28T01:21:53.222Z,36.20
2018-11-28T01:22:26.646Z,37.63
2018-11-28T01:23:00.034Z,37.93
2018-11-28T01:23:33.454Z,37.33
2018-11-28T01:24:06.869Z,39.08
2018-11-28T01:24:40.276Z,39.15
2018-11-28T01:25:17.194Z,38.98
2018-11-28T01:25:50.582Z,39.48
2018-11-28T01:26:23.972Z,37.60
2018-11-28T01:26:57.373Z,38.15
2018-11-28T01:27:30.728Z,41.45
2018-11-28T01:28:04.164Z,37.17
2018-11-28T01:28:37.581Z,38.17
2018-11-28T01:29:11.022Z,34.85
2018-11-28T01:29:44.460Z,42.20
2018-11-28T01:30:21.384Z,37.08
2018-11-28T01:30:54.813Z,35.68
2018-11-28T01:31:28.223Z,36.48
2018-11-28T01:32:01.621Z,40.38
2018-11-28T01:32:35.070Z,39.60
2018-11-28T01:33:08.470Z,35.90
2018-11-28T01:33:41.969Z,38.13
2018-11-28T01:34:15.359Z,40.98
2018-11-28T01:34:48.758Z,38.73
2018-11-28T01:35:22.500Z,38.58
2018-11-28T01:35:55.900Z,37.15
2018-11-28T01:36:29.286Z,39.98
2018-11-28T01:37:02.708Z,37.45
2018-11-28T01:37:36.152Z,38.15
2018-11-28T01:38:09.537Z,36.80
2018-11-28T01:38:42.956Z,38.48
2018-11-28T01:39:16.338Z,37.95
2018-11-28T01:39:49.746Z,34.70
2018-11-28T01:40:23.830Z,35.83
2018-11-28T01:40:57.231Z,40.98
2018-11-28T01:41:30.638Z,35.17
2018-11-28T01:42:04.187Z,37.67
2018-11-28T01:42:37.642Z,38.15
2018-11-28T01:43:11.015Z,37.67
2018-11-28T01:43:44.402Z,36.75
2018-11-28T01:44:17.782Z,37.15
2018-11-28T01:44:51.199Z,38.08
2018-11-28T01:45:24.724Z,37.55
2018-11-28T01:45:58.133Z,38.23
2018-11-28T01:46:31.547Z,39.80
2018-11-28T01:47:06.538Z,36.60
2018-11-28T01:47:40.003Z,36.10
2018-11-28T01:48:13.411Z,39.55
2018-11-28T01:48:46.818Z,39.05
2018-11-28T01:49:20.219Z,32.05
2018-11-28T01:49:53.630Z,36.33
2018-11-28T01:50:27.038Z,37.95
2018-11-28T01:51:00.450Z,35.23
2018-11-28T01:51:33.872Z,36.90
2018-11-28T01:52:07.256Z,40.08
2018-11-28T01:52:40.663Z,35.13
2018-11-28T01:53:14.059Z,34.95
2018-11-28T01:53:47.427Z,34.08
2018-11-28T01:54:20.865Z,38.15
2018-11-28T01:54:54.263Z,33.42
2018-11-28T01:55:27.663Z,38.60
2018-11-28T01:56:01.074Z,31.80
2018-11-28T01:56:34.505Z,39.48
2018-11-28T01:57:07.925Z,35.45
2018-11-28T01:57:41.374Z,33.63
2018-11-28T01:58:14.750Z,35.95
2018-11-28T01:58:48.101Z,37.05
2018-11-28T01:59:21.449Z,37.65
2018-11-28T01:59:54.869Z,35.33
2018-11-28T02:00:28.365Z,38.20
2018-11-28T02:01:01.765Z,36.90
2018-11-28T02:01:35.181Z,38.95
2018-11-28T02:02:09.953Z,37.78
2018-11-28T02:02:43.391Z,38.02
2018-11-28T02:03:16.788Z,37.58
2018-11-28T02:03:50.192Z,33.58
2018-11-28T02:04:23.621Z,37.85
2018-11-28T02:04:57.047Z,33.45
2018-11-28T02:05:30.529Z,37.50
2018-11-28T02:06:04.373Z,37.95
2018-11-28T02:06:37.892Z,37.13
2018-11-28T02:07:11.287Z,34.73
2018-11-28T02:07:44.687Z,35.00
2018-11-28T02:08:18.096Z,38.75
2018-11-28T02:08:51.509Z,34.73
2018-11-28T02:09:24.906Z,40.55
2018-11-28T02:09:58.303Z,36.80
2018-11-28T02:10:31.701Z,37.10
2018-11-28T02:11:05.530Z,37.80
2018-11-28T02:11:38.961Z,39.73
2018-11-28T02:12:12.345Z,36.00
2018-11-28T02:12:45.744Z,34.83
2018-11-28T02:13:19.132Z,37.88
2018-11-28T02:13:52.507Z,39.50
2018-11-28T02:14:25.875Z,34.33
2018-11-28T02:14:59.278Z,36.75
2018-11-28T02:15:32.957Z,39.00
2018-11-28T02:16:06.399Z,35.45
2018-11-28T02:16:39.815Z,35.52
2018-11-28T02:17:13.233Z,35.78
2018-11-28T02:17:46.739Z,34.98
2018-11-28T02:18:20.269Z,34.13
2018-11-28T02:18:53.661Z,39.63
2018-11-28T02:19:27.053Z,34.70
2018-11-28T02:20:00.491Z,34.78
2018-11-28T02:20:33.941Z,40.55
2018-11-28T02:21:07.311Z,33.98
2018-11-28T02:21:40.801Z,34.00
2018-11-28T02:22:14.186Z,39.50
2018-11-28T02:22:47.560Z,38.78
2018-11-28T02:23:20.955Z,36.15
2018-11-28T02:23:54.333Z,36.77
2018-11-28T02:24:27.791Z,37.67
2018-11-28T02:25:01.189Z,36.85
2018-11-28T02:25:34.661Z,36.98
2018-11-28T02:26:08.053Z,33.92
2018-11-28T02:26:41.467Z,38.20
2018-11-28T02:27:14.863Z,41.63
2018-11-28T02:27:48.327Z,34.15
2018-11-28T02:28:21.695Z,39.63
2018-11-28T02:28:55.132Z,36.35
2018-11-28T02:29:28.588Z,34.75
2018-11-28T02:30:02.078Z,34.25
2018-11-28T02:30:35.499Z,39.63
2018-11-28T02:31:08.913Z,35.23
2018-11-28T02:31:42.319Z,35.33
2018-11-28T02:32:15.701Z,37.53
2018-11-28T02:32:49.711Z,40.65
2018-11-28T02:33:23.050Z,40.78
2018-11-28T02:33:56.427Z,39.30
2018-11-28T02:34:29.810Z,39.83
2018-11-28T02:35:04.063Z,36.93
2018-11-28T02:35:37.477Z,38.60
2018-11-28T02:36:10.864Z,32.60
2018-11-28T02:36:44.256Z,35.95
2018-11-28T02:37:17.633Z,37.67
2018-11-28T02:37:51.019Z,33.85
2018-11-28T02:38:24.439Z,37.50
2018-11-28T02:38:57.832Z,33.88
2018-11-28T02:39:31.257Z,35.65
2018-11-28T02:40:07.059Z,38.80
2018-11-28T02:40:40.526Z,38.10
2018-11-28T02:41:13.968Z,35.73
2018-11-28T02:41:47.340Z,34.25
2018-11-28T02:42:20.729Z,41.40
2018-11-28T02:42:54.124Z,40.85
2018-11-28T02:43:27.495Z,36.00
2018-11-28T02:44:00.904Z,38.98
2018-11-28T02:44:34.303Z,33.18
2018-11-28T02:45:14.010Z,37.25
2018-11-28T02:46:04.918Z,37.83
2018-11-28T02:46:38.328Z,35.98
2018-11-28T02:47:11.727Z,37.05
2018-11-28T02:47:45.295Z,38.25
2018-11-28T02:48:18.726Z,35.88
2018-11-28T02:48:52.217Z,32.55
2018-11-28T02:49:25.596Z,35.95
2018-11-28T02:49:58.991Z,41.55
2018-11-28T02:50:32.408Z,38.17
2018-11-28T02:51:06.350Z,38.90
2018-11-28T02:51:39.767Z,39.00
2018-11-28T02:52:13.150Z,37.50
2018-11-28T02:52:46.564Z,37.60
2018-11-28T02:53:19.977Z,41.13
2018-11-28T02:53:53.436Z,37.53
2018-11-28T02:54:26.838Z,39.53
2018-11-28T02:55:00.251Z,41.13
2018-11-28T02:55:33.658Z,37.23
2018-11-28T02:56:07.051Z,34.23
2018-11-28T02:56:40.487Z,34.83
2018-11-28T02:57:13.876Z,34.60
2018-11-28T02:57:48.565Z,41.98
2018-11-28T02:58:21.949Z,36.53
2018-11-28T02:58:55.363Z,33.05
2018-11-28T02:59:29.035Z,39.63
2018-11-28T03:00:03.389Z,41.10
2018-11-28T03:00:36.809Z,37.90
2018-11-28T03:01:10.204Z,39.73
2018-11-28T03:01:43.614Z,34.80
2018-11-28T03:02:17.023Z,38.23
2018-11-28T03:02:50.520Z,36.10
2018-11-28T03:03:23.952Z,41.45
2018-11-28T03:03:57.370Z,37.38
2018-11-28T03:04:30.794Z,35.40
2018-11-28T03:05:05.868Z,40.98
2018-11-28T03:05:39.273Z,41.48
2018-11-28T03:06:12.650Z,39.53
2018-11-28T03:06:46.042Z,40.40
2018-11-28T03:07:19.448Z,38.33
2018-11-28T03:07:52.839Z,37.48
2018-11-28T03:08:26.223Z,38.40
2018-11-28T03:08:59.609Z,44.05
2018-11-28T03:09:33.087Z,38.00
2018-11-28T03:10:15.322Z,39.35
2018-11-28T03:10:48.731Z,37.23
2018-11-28T03:11:22.148Z,34.70
2018-11-28T03:11:55.587Z,41.00
2018-11-28T03:12:28.990Z,34.38
2018-11-28T03:13:02.395Z,38.33
2018-11-28T03:13:36.114Z,35.03
2018-11-28T03:14:09.549Z,36.50
2018-11-28T03:14:43.046Z,33.92
2018-11-28T03:15:32.222Z,34.67
2018-11-28T03:16:24.508Z,35.05
2018-11-28T03:16:57.907Z,38.10
2018-11-28T03:17:31.297Z,38.75
2018-11-28T03:18:05.722Z,40.28
2018-11-28T03:18:39.218Z,38.55
2018-11-28T03:19:12.598Z,38.90
2018-11-28T03:19:47.075Z,37.45
2018-11-28T03:20:20.546Z,38.78
2018-11-28T03:20:53.974Z,36.75
2018-11-28T03:21:27.386Z,40.28
2018-11-28T03:22:00.825Z,38.83
2018-11-28T03:22:34.228Z,37.75
2018-11-28T03:23:07.661Z,36.13
2018-11-28T03:23:41.053Z,37.23
2018-11-28T03:24:14.458Z,37.55
2018-11-28T03:24:47.868Z,36.68
2018-11-28T03:25:21.311Z,36.68
2018-11-28T03:25:54.729Z,35.05
2018-11-28T03:26:28.146Z,38.92
2018-11-28T03:27:01.555Z,40.20
2018-11-28T03:27:34.946Z,38.83
2018-11-28T03:28:08.344Z,39.08
2018-11-28T03:28:41.721Z,38.63
2018-11-28T03:29:15.117Z,39.55
2018-11-28T03:29:48.522Z,42.43
2018-11-28T03:30:21.942Z,34.27
2018-11-28T03:30:55.351Z,39.40
2018-11-28T03:31:28.770Z,35.03
2018-11-28T03:32:02.194Z,40.38
2018-11-28T03:32:35.604Z,38.02
2018-11-28T03:33:09.069Z,37.35
2018-11-28T03:33:42.511Z,44.27
2018-11-28T03:34:15.922Z,35.00
2018-11-28T03:34:49.309Z,36.83
2018-11-28T03:35:22.702Z,33.50
2018-11-28T03:35:56.132Z,42.73
2018-11-28T03:36:29.524Z,36.75
2018-11-28T03:37:03.475Z,39.83
2018-11-28T03:37:36.875Z,38.80
2018-11-28T03:38:10.282Z,38.25
2018-11-28T03:38:43.674Z,41.02
2018-11-28T03:39:17.076Z,39.18
2018-11-28T03:39:50.601Z,36.75
2018-11-28T03:40:24.014Z,40.30
2018-11-28T03:40:57.492Z,38.70
2018-11-28T03:41:30.927Z,38.55
2018-11-28T03:42:04.932Z,42.10
2018-11-28T03:42:38.346Z,38.48
2018-11-28T03:43:11.712Z,37.00
2018-11-28T03:43:45.123Z,39.58
2018-11-28T03:44:18.509Z,40.35
2018-11-28T03:44:51.898Z,36.73
2018-11-28T03:45:25.276Z,38.45
2018-11-28T03:45:58.669Z,34.50
2018-11-28T03:46:32.089Z,40.43
2018-11-28T03:47:05.584Z,34.27
2018-11-28T03:47:39.071Z,38.05
2018-11-28T03:48:12.490Z,36.42
2018-11-28T03:48:45.903Z,40.58
2018-11-28T03:49:19.294Z,37.80
2018-11-28T03:49:52.690Z,36.90
2018-11-28T03:50:26.067Z,36.83
2018-11-28T03:51:00.644Z,34.80
2018-11-28T03:51:32.894Z,40.08
2018-11-28T03:52:06.313Z,35.88
2018-11-28T03:52:39.807Z,39.50
2018-11-28T03:53:13.205Z,39.48
2018-11-28T03:53:46.675Z,40.73
2018-11-28T03:54:20.039Z,37.30
2018-11-28T03:54:53.410Z,39.27
2018-11-28T03:55:26.827Z,38.28
2018-11-28T03:56:00.285Z,39.20
2018-11-28T03:56:33.661Z,36.08
2018-11-28T03:57:07.024Z,33.50
2018-11-28T03:57:40.496Z,38.78
2018-11-28T03:58:14.201Z,39.95
2018-11-28T03:58:47.598Z,42.75
2018-11-28T03:59:20.971Z,39.10
2018-11-28T03:59:54.377Z,36.77
2018-11-28T04:00:27.759Z,37.00
2018-11-28T04:01:01.163Z,40.73
2018-11-28T04:01:34.588Z,40.05
2018-11-28T04:02:08.012Z,40.50
2018-11-28T04:02:41.479Z,33.35
2018-11-28T04:03:14.898Z,36.98
2018-11-28T04:03:48.289Z,39.00
2018-11-28T04:04:21.692Z,39.55
2018-11-28T04:04:55.121Z,35.15
2018-11-28T04:05:28.530Z,33.98
2018-11-28T04:06:01.947Z,35.25
2018-11-28T04:06:35.362Z,41.25
2018-11-28T04:07:08.781Z,34.83
2018-11-28T04:07:42.215Z,37.53
2018-11-28T04:08:15.615Z,36.50
2018-11-28T04:08:49.009Z,38.80
2018-11-28T04:09:22.396Z,39.10
2018-11-28T04:09:55.797Z,39.27
2018-11-28T04:10:29.198Z,36.85
2018-11-28T04:11:02.623Z,40.20
2018-11-28T04:11:36.037Z,40.10
2018-11-28T04:12:09.416Z,43.50
2018-11-28T04:12:43.899Z,38.23
2018-11-28T04:13:17.362Z,31.23
2018-11-28T04:13:50.779Z,35.17
2018-11-28T04:14:24.169Z,40.60
2018-11-28T04:14:57.568Z,37.23
2018-11-28T04:15:31.023Z,39.78
2018-11-28T04:16:05.101Z,36.50
2018-11-28T04:16:38.543Z,38.23
2018-11-28T04:17:11.982Z,42.05
2018-11-28T04:17:45.453Z,37.78
2018-11-28T04:18:18.857Z,38.17
2018-11-28T04:18:52.295Z,39.60
2018-11-28T04:19:25.673Z,36.90
2018-11-28T04:19:59.097Z,39.88
2018-11-28T04:20:32.499Z,37.30
2018-11-28T04:21:05.943Z,37.40
2018-11-28T04:21:39.355Z,41.42
2018-11-28T04:22:12.785Z,35.17
2018-11-28T04:22:46.226Z,41.68
2018-11-28T04:23:19.610Z,37.45
2018-11-28T04:23:53.044Z,40.60
2018-11-28T04:24:26.433Z,36.05
2018-11-28T04:24:59.827Z,35.73
2018-11-28T04:25:33.719Z,42.93
2018-11-28T04:26:07.152Z,31.12
2018-11-28T04:26:40.641Z,36.83
2018-11-28T04:27:14.007Z,35.65
2018-11-28T04:27:47.565Z,38.28
2018-11-28T04:28:20.984Z,36.48
2018-11-28T04:28:54.370Z,36.60
2018-11-28T04:29:27.741Z,38.23
2018-11-28T04:30:01.198Z,34.67
2018-11-28T04:30:34.605Z,34.73
2018-11-28T04:31:08.017Z,38.13
2018-11-28T04:31:41.441Z,36.75
2018-11-28T04:32:14.800Z,39.08
2018-11-28T04:32:49.207Z,38.85
2018-11-28T04:33:22.585Z,39.73
2018-11-28T04:33:55.999Z,41.05
2018-11-28T04:34:29.387Z,37.85
2018-11-28T04:35:02.828Z,34.55
2018-11-28T04:35:36.213Z,37.23
2018-11-28T04:36:09.591Z,39.73
2018-11-28T04:36:42.972Z,39.88
2018-11-28T04:37:16.361Z,35.65
2018-11-28T04:37:49.797Z,37.60
2018-11-28T04:38:23.214Z,40.90
2018-11-28T04:38:56.639Z,39.60
2018-11-28T04:39:30.060Z,37.30
2018-11-28T04:40:06.031Z,33.15
2018-11-28T04:40:39.443Z,37.80
2018-11-28T04:41:12.863Z,36.38
2018-11-28T04:41:46.301Z,38.70
2018-11-28T04:42:19.704Z,41.02
2018-11-28T04:42:53.146Z,39.83
2018-11-28T04:43:26.573Z,39.15
2018-11-28T04:43:59.989Z,41.92
2018-11-28T04:44:33.391Z,40.15
2018-11-28T04:45:23.523Z,35.98
2018-11-28T04:45:56.927Z,42.20
2018-11-28T04:46:30.382Z,39.58
2018-11-28T04:47:03.794Z,34.60
2018-11-28T04:47:37.173Z,41.18
2018-11-28T04:48:10.555Z,39.83
2018-11-28T04:48:43.976Z,37.63
2018-11-28T04:49:17.402Z,41.15
2018-11-28T04:49:50.813Z,40.65
2018-11-28T04:50:24.223Z,38.00
2018-11-28T04:50:57.636Z,39.25
2018-11-28T04:51:31.117Z,37.73
2018-11-28T04:52:05.230Z,37.83
2018-11-28T04:52:38.831Z,33.45
2018-11-28T04:53:12.254Z,41.05
2018-11-28T04:53:45.659Z,38.67
2018-11-28T04:54:19.071Z,39.53
2018-11-28T04:54:52.490Z,42.75
2018-11-28T04:55:25.866Z,41.98
2018-11-28T04:55:59.273Z,39.50
2018-11-28T04:56:32.660Z,37.13
2018-11-28T04:57:06.352Z,42.33
2018-11-28T04:57:39.764Z,40.10
2018-11-28T04:58:13.145Z,37.90
2018-11-28T04:58:46.519Z,39.63
2018-11-28T04:59:19.956Z,42.50
2018-11-28T04:59:53.362Z,43.80
2018-11-28T05:00:26.796Z,38.88
2018-11-28T05:01:00.193Z,42.60
2018-11-28T05:01:33.595Z,40.90
2018-11-28T05:02:07.049Z,43.38
2018-11-28T05:02:40.500Z,38.08
2018-11-28T05:03:13.921Z,43.92
2018-11-28T05:03:47.374Z,40.35
2018-11-28T05:04:20.770Z,36.90
2018-11-28T05:04:54.177Z,43.68
2018-11-28T05:05:27.620Z,45.73
2018-11-28T05:06:01.042Z,43.90
2018-11-28T05:07:40.532Z,42.38
2018-11-28T05:08:13.944Z,39.18
2018-11-28T05:08:47.342Z,41.00
2018-11-28T05:09:20.722Z,38.88
2018-11-28T05:09:54.309Z,40.38
2018-11-28T05:10:29.317Z,38.95
2018-11-28T05:11:02.777Z,43.30
2018-11-28T05:11:36.173Z,39.10
2018-11-28T05:12:09.562Z,41.65
2018-11-28T05:12:43.052Z,37.78
2018-11-28T05:13:16.434Z,41.37
2018-11-28T05:13:49.788Z,41.40
2018-11-28T05:14:23.178Z,43.65
2018-11-28T05:14:56.609Z,41.02
2018-11-28T05:15:31.864Z,40.35
2018-11-28T05:16:05.868Z,40.80
2018-11-28T05:16:39.258Z,38.17
2018-11-28T05:17:12.644Z,33.92
2018-11-28T05:17:48.414Z,41.42
2018-11-28T05:18:21.806Z,37.33
2018-11-28T05:18:55.196Z,40.75
2018-11-28T05:19:28.586Z,38.20
2018-11-28T05:20:01.985Z,44.42
2018-11-28T05:20:35.437Z,43.42
2018-11-28T05:21:08.822Z,43.10
2018-11-28T05:21:42.244Z,43.08
2018-11-28T05:22:15.700Z,41.30
2018-11-28T05:22:58.024Z,42.98
2018-11-28T05:23:31.413Z,42.13
2018-11-28T05:24:04.821Z,44.90
2018-11-28T05:24:38.246Z,43.80
2018-11-28T05:25:15.390Z,40.52
2018-11-28T05:25:48.774Z,42.70
2018-11-28T05:26:22.197Z,40.60
2018-11-28T05:26:55.822Z,42.43
2018-11-28T05:27:29.240Z,45.75
2018-11-28T05:28:02.793Z,45.20
2018-11-28T05:28:36.196Z,44.58
2018-11-28T05:29:09.579Z,44.10
2018-11-28T05:29:42.978Z,41.92
2018-11-28T05:30:19.466Z,38.73
2018-11-28T05:30:52.863Z,46.63
2018-11-28T05:31:26.273Z,40.83
2018-11-28T05:31:59.698Z,41.95
2018-11-28T05:32:33.132Z,40.78
2018-11-28T05:33:06.847Z,42.20
2018-11-28T05:33:40.246Z,42.03
2018-11-28T05:34:13.628Z,45.15
2018-11-28T05:34:47.054Z,42.70
2018-11-28T05:35:23.642Z,38.38
2018-11-28T05:35:57.070Z,42.70
2018-11-28T05:36:30.512Z,45.58
2018-11-28T05:37:04.474Z,44.27
2018-11-28T05:37:37.990Z,44.50
2018-11-28T05:38:15.083Z,44.42
2018-11-28T05:38:48.478Z,43.87
2018-11-28T05:39:21.893Z,43.85
2018-11-28T05:39:55.304Z,47.05
2018-11-28T05:40:28.705Z,42.95
2018-11-28T05:41:02.114Z,43.98
2018-11-28T05:41:35.528Z,47.73
2018-11-28T05:42:08.959Z,47.75
2018-11-28T05:42:42.470Z,41.50
2018-11-28T05:43:15.940Z,45.85
2018-11-28T05:43:49.332Z,43.75
2018-11-28T05:44:22.762Z,43.83
2018-11-28T05:44:56.122Z,47.43
2018-11-28T05:45:29.556Z,49.75
2018-11-28T05:46:02.974Z,48.58
2018-11-28T05:46:36.392Z,51.05
2018-11-28T05:47:09.835Z,46.60
2018-11-28T05:47:43.256Z,43.42
2018-11-28T05:48:16.703Z,47.85
2018-11-28T05:48:50.404Z,47.50
2018-11-28T05:49:23.822Z,44.03
2018-11-28T05:49:57.205Z,43.15
2018-11-28T05:50:30.646Z,49.13
2018-11-28T05:51:04.120Z,47.85
2018-11-28T05:51:37.534Z,50.88
2018-11-28T05:52:10.926Z,45.73
2018-11-28T05:52:44.336Z,50.83
2018-11-28T05:53:17.743Z,49.53
2018-11-28T05:53:51.132Z,46.23
2018-11-28T05:54:24.535Z,50.75
2018-11-28T05:54:57.905Z,47.58
2018-11-28T05:55:31.297Z,56.13
2018-11-28T05:56:05.292Z,41.48
2018-11-28T05:56:38.747Z,47.08
2018-11-28T05:57:12.140Z,51.30
2018-11-28T05:57:45.609Z,47.67
2018-11-28T05:58:18.994Z,48.02
2018-11-28T05:58:52.374Z,48.87
2018-11-28T05:59:27.520Z,46.68
2018-11-28T05:59:59.197Z,43.87
2018-11-28T06:00:39.202Z,46.92
2018-11-28T06:01:12.604Z,49.70
2018-11-28T06:01:46.041Z,49.70
2018-11-28T06:02:19.467Z,46.33
2018-11-28T06:02:52.961Z,51.15
2018-11-28T06:03:26.350Z,52.27
2018-11-28T06:03:59.759Z,48.95
2018-11-28T06:04:33.158Z,51.98
2018-11-28T06:05:08.387Z,49.75
2018-11-28T06:05:42.548Z,52.98
2018-11-28T06:06:15.937Z,46.25
2018-11-28T06:06:49.332Z,46.70
2018-11-28T06:07:22.732Z,53.45
2018-11-28T06:07:56.164Z,49.25
2018-11-28T06:08:29.574Z,50.23
2018-11-28T06:09:04.213Z,49.60
2018-11-28T06:09:37.644Z,47.17
2018-11-28T06:10:11.149Z,46.02
2018-11-28T06:10:44.549Z,50.83
2018-11-28T06:11:17.926Z,51.55
2018-11-28T06:11:51.429Z,53.80
2018-11-28T06:12:24.820Z,54.88
2018-11-28T06:12:58.283Z,48.55
2018-11-28T06:13:31.703Z,48.78
2018-11-28T06:14:06.629Z,51.98
2018-11-28T06:14:40.039Z,56.20
2018-11-28T06:15:13.510Z,53.50
2018-11-28T06:15:46.888Z,57.62
2018-11-28T06:16:20.283Z,48.83
2018-11-28T06:16:53.743Z,53.42
2018-11-28T06:17:27.128Z,49.65
2018-11-28T06:18:00.494Z,55.98
2018-11-28T06:18:33.878Z,54.40
2018-11-28T06:19:07.596Z,51.15
2018-11-28T06:19:41.207Z,57.20
2018-11-28T06:20:15.470Z,54.95
2018-11-28T06:20:48.959Z,49.23
2018-11-28T06:21:22.417Z,51.00
2018-11-28T06:21:55.827Z,51.25
2018-11-28T06:22:29.224Z,49.30
2018-11-28T06:23:03.491Z,55.10
2018-11-28T06:23:36.934Z,56.42
2018-11-28T06:24:10.334Z,44.08
2018-11-28T06:24:43.725Z,49.13
2018-11-28T06:25:17.376Z,42.60
2018-11-28T06:25:50.774Z,50.55
2018-11-28T06:26:24.198Z,56.08
2018-11-28T06:26:57.624Z,52.35
2018-11-28T06:27:31.015Z,57.60
2018-11-28T06:28:04.646Z,46.37
2018-11-28T06:28:38.069Z,52.62
2018-11-28T06:29:11.495Z,59.53
2018-11-28T06:29:44.926Z,48.90
2018-11-28T06:30:19.624Z,48.75
2018-11-28T06:30:52.995Z,48.25
2018-11-28T06:31:26.391Z,56.65
2018-11-28T06:31:59.814Z,56.45
2018-11-28T06:32:33.239Z,50.63
2018-11-28T06:33:06.639Z,58.38
2018-11-28T06:33:40.051Z,61.33
2018-11-28T06:34:13.437Z,59.58
2018-11-28T06:34:46.926Z,57.98
2018-11-28T06:35:20.378Z,57.45
2018-11-28T06:35:53.759Z,58.35
2018-11-28T06:36:27.133Z,59.73
2018-11-28T06:37:00.544Z,53.95
2018-11-28T06:37:34.037Z,57.33
2018-11-28T06:38:07.453Z,55.08
2018-11-28T06:38:40.883Z,59.60
2018-11-28T06:39:14.262Z,49.45
2018-11-28T06:39:47.722Z,51.92
2018-11-28T06:40:23.854Z,46.65
2018-11-28T06:40:54.831Z,45.00
2018-11-28T06:41:28.231Z,54.63
2018-11-28T06:42:01.616Z,55.95
2018-11-28T06:42:35.015Z,46.77
2018-11-28T06:43:08.401Z,58.28
2018-11-28T06:43:41.841Z,55.08
2018-11-28T06:44:15.283Z,61.25
2018-11-28T06:44:48.672Z,55.05
2018-11-28T06:45:22.571Z,43.10
2018-11-28T06:45:55.943Z,59.73
2018-11-28T06:46:29.311Z,53.75
2018-11-28T06:47:02.698Z,57.67
2018-11-28T06:47:36.125Z,53.33
2018-11-28T06:48:09.513Z,54.63
2018-11-28T06:48:42.948Z,57.03
2018-11-28T06:49:16.365Z,53.28
2018-11-28T06:49:49.811Z,51.73
2018-11-28T06:50:23.206Z,50.15
2018-11-28T06:50:56.605Z,58.23
2018-11-28T06:51:30.073Z,44.55
2018-11-28T06:52:03.539Z,60.75
2018-11-28T06:52:36.987Z,48.85
2018-11-28T06:53:10.468Z,57.30
2018-11-28T06:53:43.896Z,62.55
2018-11-28T06:54:17.274Z,52.83
2018-11-28T06:54:50.697Z,53.30
2018-11-28T06:55:24.092Z,47.10
2018-11-28T06:55:57.489Z,53.05
2018-11-28T06:56:30.886Z,60.20
2018-11-28T06:57:04.331Z,55.28
2018-11-28T06:57:37.747Z,47.62
2018-11-28T06:58:11.171Z,62.17
2018-11-28T06:58:44.590Z,54.42
2018-11-28T06:59:17.995Z,52.62
2018-11-28T06:59:51.391Z,51.00
2018-11-28T07:00:24.795Z,61.18
2018-11-28T07:00:58.227Z,55.88
2018-11-28T07:01:31.617Z,56.58
2018-11-28T07:02:05.211Z,56.45
2018-11-28T07:02:38.637Z,53.33
2018-11-28T07:03:12.043Z,58.65
2018-11-28T07:03:45.471Z,60.75
2018-11-28T07:04:18.897Z,58.42
2018-11-28T07:04:52.287Z,59.65
2018-11-28T07:05:25.683Z,43.55
2018-11-28T07:05:59.069Z,59.30
2018-11-28T07:06:32.489Z,54.98
2018-11-28T07:07:06.012Z,46.50
2018-11-28T07:07:39.485Z,50.15
2018-11-28T07:08:16.990Z,55.75
2018-11-28T07:08:50.406Z,57.15
2018-11-28T07:09:23.875Z,56.35
2018-11-28T07:09:57.361Z,59.45
2018-11-28T07:10:31.062Z,53.52
2018-11-28T07:11:04.757Z,48.40
2018-11-28T07:11:38.171Z,48.75
2018-11-28T07:12:11.551Z,44.90
2018-11-28T07:12:44.972Z,56.80
2018-11-28T07:13:18.356Z,56.85
2018-11-28T07:13:51.761Z,60.55
2018-11-28T07:14:25.127Z,59.73
2018-11-28T07:14:58.524Z,52.38
2018-11-28T07:15:31.927Z,60.28